createdAt,value
2023-08-29T00:00:24.312Z,99887.34
2023-08-29T00:04:34.244Z,99879.75
2023-08-29T00:39:53.706Z,99861.59
2023-08-29T01:03:51.261Z,99769.16
2023-08-29T01:07:43.396Z,99763.91
2023-08-29T01:15:27.202Z,99791.03
2023-08-29T01:24:27.327Z,99779.53
2023-08-29T01:27:34.420Z,99749.72
2023-08-29T01:31:09.218Z,99766.44
2023-08-29T01:34:13.775Z,99737.69
2023-08-29T01:37:17.911Z,99727.97
2023-08-29T01:40:20.602Z,99730.22
2023-08-29T01:43:25.818Z,99734.56
2023-08-29T01:46:38.871Z,99725.50
2023-08-29T03:06:46.773Z,99534.63
2023-08-29T03:09:50.634Z,99520.97
2023-08-29T03:12:53.761Z,99514.94
2023-08-29T03:16:01.179Z,99513.78
2023-08-29T03:19:04.484Z,99515.78
2023-08-29T03:22:07.542Z,99507.84
2023-08-29T03:25:11.351Z,99526.59
2023-08-29T03:28:14.587Z,99551.41
2023-08-29T03:31:18.603Z,99615.38
2023-08-29T03:34:21.817Z,99659.72
2023-08-29T03:37:25.660Z,99676.34
2023-08-29T03:40:29.548Z,99689.44
2023-08-29T04:02:26.594Z,99763.22
2023-08-29T04:05:30.706Z,99740.50
2023-08-29T04:08:34.467Z,99705.66
2023-08-29T05:38:47.300Z,99666.25
2023-08-29T05:42:05.228Z,99662.97
2023-08-29T05:45:09.125Z,99663.13
2023-08-29T05:48:17.686Z,99660.00
2023-08-29T05:51:29.179Z,99655.38
2023-08-29T05:54:32.494Z,99636.03
2023-08-29T06:03:03.067Z,99638.28
2023-08-29T06:06:06.830Z,99623.59
2023-08-29T06:09:13.807Z,99631.31
2023-08-29T06:23:35.228Z,99606.41
2023-08-29T06:26:41.054Z,99604.34
2023-08-29T06:29:44.225Z,99610.25
2023-08-29T06:32:47.595Z,99596.31
2023-08-29T06:35:50.256Z,99596.47
2023-08-29T06:38:53.502Z,99585.78
2023-08-29T06:41:57.208Z,99586.13
2023-08-29T06:45:04.375Z,99590.03
2023-08-29T06:48:07.723Z,99580.94
2023-08-29T06:51:11.907Z,99575.09
2023-08-29T06:54:14.619Z,99553.50
2023-08-29T06:57:17.701Z,99573.06
2023-08-29T07:00:24.351Z,99548.81
2023-08-29T07:03:28.097Z,99550.63
2023-08-29T07:06:30.805Z,99560.91
2023-08-29T07:09:34.258Z,99572.59
2023-08-29T07:12:37.613Z,99560.22
2023-08-29T07:15:40.907Z,99562.75
2023-08-29T07:18:43.943Z,99575.09
2023-08-29T07:21:47.792Z,99575.50
2023-08-29T07:25:05.052Z,99576.13
2023-08-29T07:35:09.989Z,99562.31
2023-08-29T07:43:07.237Z,99573.75
2023-08-29T07:46:19.177Z,99578.69
2023-08-29T07:53:45.440Z,99589.97
2023-08-29T07:57:03.690Z,99577.06
2023-08-29T08:08:47.350Z,99607.00
2023-08-29T08:12:27.953Z,99602.50
2023-08-29T11:49:24.087Z,99578.75
2023-08-29T14:40:52.801Z,99636.53
2023-08-29T14:44:03.790Z,99654.41
2023-08-29T14:47:07.608Z,99637.94
2023-08-29T14:50:24.679Z,99646.03
2023-08-29T14:53:35.190Z,99653.81
2023-08-29T14:56:40.586Z,99653.69
2023-08-29T14:59:46.747Z,99662.25
2023-08-29T15:03:10.669Z,99659.00
2023-08-29T15:06:19.689Z,99665.41
2023-08-29T15:09:25.516Z,99669.19
2023-08-29T15:12:32.631Z,99656.94
2023-08-29T15:15:39.390Z,99657.28
2023-08-29T15:18:44.859Z,99663.59
2023-08-29T15:38:03.436Z,99661.31
2023-08-29T15:42:13.458Z,99671.81
2023-08-29T16:00:44.367Z,99651.22
2023-08-29T16:04:01.502Z,99657.66
2023-08-29T16:07:28.342Z,99658.00
2023-08-29T16:10:47.130Z,99646.63
2023-08-29T16:13:51.408Z,99652.47
2023-08-29T16:16:54.539Z,99626.47
2023-08-29T16:19:59.910Z,99654.66
2023-08-29T16:28:32.400Z,99639.56
2023-08-29T16:31:39.019Z,99628.91
2023-08-29T16:34:43.253Z,99632.28
2023-08-29T16:37:52.225Z,99621.75
2023-08-29T16:40:55.955Z,99619.41
2023-08-29T16:43:59.631Z,99613.34
2023-08-29T16:47:03.902Z,99633.75
2023-08-29T16:50:09.196Z,99638.72
2023-08-29T16:53:12.435Z,99634.59
2023-08-29T16:57:04.421Z,99653.72
2023-08-29T17:01:25.747Z,99641.06
2023-08-29T17:04:33.025Z,99622.41
2023-08-29T17:07:56.712Z,99622.00
2023-08-29T17:12:26.623Z,99610.50
2023-08-29T17:17:11.294Z,99597.00
2023-08-29T17:31:48.418Z,99637.75
2023-08-29T17:48:52.475Z,99695.78
2023-08-29T17:51:57.087Z,99703.16
2023-08-29T17:55:01.296Z,99696.72
2023-08-29T17:58:10.345Z,99714.53
2023-08-29T18:01:14.007Z,99719.56
2023-08-29T18:04:18.226Z,99715.69
2023-08-29T18:07:22.041Z,99698.84
2023-08-29T18:10:26.137Z,99714.03
2023-08-29T18:13:30.022Z,99694.47
2023-08-29T18:16:37.731Z,99692.50
2023-08-29T18:19:44.162Z,99679.16
2023-08-29T18:23:13.327Z,99679.28
2023-08-29T18:26:31.288Z,99669.19
2023-08-29T18:29:37.879Z,99674.63
2023-08-29T18:32:44.596Z,99688.44
2023-08-29T18:35:54.712Z,99679.00
2023-08-29T18:39:24.403Z,99663.78
2023-08-29T18:42:41.032Z,99669.28
2023-08-29T18:46:22.176Z,99653.44
2023-08-29T18:50:05.071Z,99639.66
2023-08-29T19:04:03.974Z,99607.63
2023-08-29T19:07:11.054Z,99599.53
2023-08-29T19:10:16.923Z,99601.81
2023-08-29T19:59:32.094Z,99624.19
2023-08-29T20:03:39.914Z,99623.59
2023-08-29T20:07:22.820Z,99625.44
2023-08-29T20:15:53.212Z,99642.81
2023-08-29T20:19:27.251Z,99652.09
2023-08-29T20:22:30.823Z,99661.09
2023-08-29T20:25:35.087Z,99644.19
2023-08-29T20:28:40.690Z,99635.69
2023-08-29T20:31:44.825Z,99640.34
2023-08-29T20:34:48.271Z,99616.06
2023-08-29T20:37:52.266Z,99611.78
2023-08-29T20:40:56.056Z,99602.22
2023-08-29T20:44:01.616Z,99601.91
2023-08-29T20:47:04.929Z,99596.31
2023-08-29T20:50:08.499Z,99582.13
2023-08-29T20:53:11.689Z,99610.19
2023-08-29T20:56:15.032Z,99598.63
2023-08-29T20:59:18.347Z,99601.13
2023-08-29T21:02:21.756Z,99603.72
2023-08-29T21:05:24.780Z,99606.56
2023-08-29T21:08:28.959Z,99615.41
2023-08-29T21:11:34.459Z,99611.84
2023-08-29T21:14:48.021Z,99620.56
2023-08-29T21:25:05.277Z,99641.22
